createdAt,value
2023-01-13T00:01:55.514Z,9.40
2023-01-13T00:04:27.077Z,9.18
2023-01-13T00:06:58.578Z,9.23
2023-01-13T00:09:30.029Z,9.05
2023-01-13T00:12:01.423Z,9.57
2023-01-13T00:14:36.551Z,10.35
2023-01-13T00:17:08.089Z,9.23
2023-01-13T00:19:39.546Z,9.17
2023-01-13T00:22:10.950Z,9.40
2023-01-13T00:24:42.356Z,8.98
2023-01-13T00:27:13.752Z,9.15
2023-01-13T00:29:45.151Z,8.75
2023-01-13T00:32:16.562Z,9.10
2023-01-13T00:34:47.949Z,9.65
2023-01-13T00:37:19.438Z,9.48
2023-01-13T00:39:52.249Z,10.50
2023-01-13T00:42:23.666Z,11.55
2023-01-13T00:44:55.057Z,10.15
2023-01-13T00:47:26.645Z,10.48
2023-01-13T00:49:58.058Z,10.10
2023-01-13T00:52:32.349Z,10.02
2023-01-13T00:55:04.017Z,11.77
2023-01-13T00:57:35.389Z,10.75
2023-01-13T01:00:07.511Z,11.88
2023-01-13T01:02:39.002Z,9.93
2023-01-13T01:05:10.687Z,10.15
2023-01-13T01:07:42.122Z,9.85
2023-01-13T01:10:13.941Z,9.52
2023-01-13T01:12:45.374Z,10.10
2023-01-13T01:15:17.405Z,10.90
2023-01-13T01:17:48.910Z,11.27
2023-01-13T01:20:20.316Z,11.27
2023-01-13T01:22:51.753Z,10.75
2023-01-13T01:25:23.182Z,11.20
2023-01-13T01:27:54.662Z,13.00
2023-01-13T01:30:26.780Z,11.75
2023-01-13T01:32:58.188Z,12.38
2023-01-13T01:35:29.581Z,12.03
2023-01-13T01:38:00.978Z,11.57
2023-01-13T01:40:32.531Z,11.60
2023-01-13T01:43:14.715Z,12.38
2023-01-13T01:45:46.125Z,12.35
2023-01-13T01:48:17.530Z,11.88
2023-01-13T01:50:49.073Z,11.85
2023-01-13T01:53:24.492Z,11.30
2023-01-13T01:55:57.648Z,11.93
2023-01-13T01:58:35.130Z,11.90
2023-01-13T02:01:08.771Z,11.85
2023-01-13T02:03:45.694Z,11.23
2023-01-13T02:06:17.231Z,11.73
2023-01-13T02:08:48.858Z,12.52
2023-01-13T02:11:34.054Z,11.98
2023-01-13T02:14:05.465Z,11.77
2023-01-13T02:16:43.306Z,12.65
2023-01-13T02:19:59.655Z,11.98
2023-01-13T02:23:01.960Z,12.95
2023-01-13T02:25:36.541Z,11.93
2023-01-13T02:28:27.912Z,13.32
2023-01-13T02:31:08.627Z,12.57
2023-01-13T02:34:06.109Z,11.55
2023-01-13T02:36:49.684Z,11.53
2023-01-13T02:39:27.364Z,11.93
2023-01-13T02:42:08.946Z,11.25
2023-01-13T02:44:52.215Z,11.05
2023-01-13T02:47:30.621Z,13.20
2023-01-13T02:50:10.966Z,12.18
2023-01-13T02:52:51.190Z,12.73
2023-01-13T02:55:29.983Z,12.45
2023-01-13T02:58:04.279Z,12.68
2023-01-13T03:00:37.018Z,12.00
2023-01-13T03:03:08.568Z,11.52
2023-01-13T03:05:44.021Z,11.43
2023-01-13T03:08:43.070Z,10.60
2023-01-13T03:11:17.543Z,10.05
2023-01-13T03:14:07.303Z,9.83
2023-01-13T03:17:02.326Z,8.98
2023-01-13T03:19:57.200Z,9.45
2023-01-13T03:22:38.205Z,9.02
2023-01-13T03:25:18.659Z,9.27
2023-01-13T03:28:02.438Z,8.80
2023-01-13T03:30:43.552Z,8.00
2023-01-13T03:33:18.071Z,8.13
2023-01-13T03:35:53.067Z,7.80
2023-01-13T03:38:31.751Z,8.40
2023-01-13T03:41:11.848Z,7.93
2023-01-13T03:44:13.531Z,7.67
2023-01-13T03:46:49.345Z,8.00
2023-01-13T03:49:25.857Z,8.32
2023-01-13T03:52:01.861Z,8.63
2023-01-13T03:54:39.469Z,7.30
2023-01-13T03:57:15.351Z,7.05
2023-01-13T03:59:51.022Z,6.90
2023-01-13T04:02:47.110Z,6.35
2023-01-13T04:05:18.924Z,6.13
2023-01-13T04:07:58.992Z,6.43
2023-01-13T04:10:36.292Z,5.90
2023-01-13T04:13:19.084Z,6.22
2023-01-13T04:15:50.715Z,6.50
2023-01-13T04:18:28.065Z,6.35
2023-01-13T04:21:01.610Z,6.07
2023-01-13T04:23:33.212Z,6.60
2023-01-13T04:26:04.730Z,6.07
2023-01-13T04:28:36.197Z,5.68
2023-01-13T04:31:07.642Z,6.60
2023-01-13T04:33:39.046Z,5.88
2023-01-13T04:36:10.545Z,5.50
2023-01-13T04:38:41.941Z,5.50
2023-01-13T04:41:13.457Z,6.03
2023-01-13T04:43:44.870Z,4.75
2023-01-13T04:46:16.393Z,5.50
2023-01-13T04:48:47.808Z,5.35
2023-01-13T04:51:19.234Z,4.82
2023-01-13T04:53:50.680Z,5.80
2023-01-13T04:56:22.104Z,5.75
2023-01-13T04:58:53.615Z,5.63
2023-01-13T05:01:28.638Z,5.47
2023-01-13T05:04:00.111Z,4.60
2023-01-13T05:06:31.640Z,6.30
2023-01-13T05:09:03.428Z,5.75
2023-01-13T05:11:34.823Z,5.45
2023-01-13T05:14:06.360Z,6.07
2023-01-13T05:16:37.876Z,6.07
2023-01-13T05:19:09.523Z,5.97
2023-01-13T05:21:40.966Z,5.68
2023-01-13T05:24:12.379Z,6.18
2023-01-13T05:26:43.943Z,6.20
2023-01-13T05:29:15.360Z,5.90
2023-01-13T05:31:46.812Z,6.37
2023-01-13T05:34:18.280Z,6.03
2023-01-13T05:36:49.694Z,5.75
2023-01-13T05:39:21.123Z,6.30
2023-01-13T05:41:52.546Z,6.65
2023-01-13T05:44:23.938Z,6.67
2023-01-13T05:46:55.407Z,5.88
2023-01-13T05:49:26.868Z,6.38
2023-01-13T05:51:58.296Z,6.45
2023-01-13T05:54:29.736Z,6.03
2023-01-13T05:57:01.154Z,6.50
2023-01-13T05:59:32.529Z,5.95
2023-01-13T06:02:04.160Z,5.78
2023-01-13T06:04:35.591Z,6.40
2023-01-13T06:07:07.054Z,6.07
2023-01-13T06:09:38.493Z,5.93
2023-01-13T06:12:13.311Z,6.82
2023-01-13T06:14:44.775Z,6.90
2023-01-13T06:17:16.575Z,6.63
2023-01-13T06:19:48.033Z,6.30
2023-01-13T06:22:26.425Z,6.38
2023-01-13T06:24:58.469Z,6.25
2023-01-13T06:27:30.347Z,5.72
2023-01-13T06:30:01.816Z,6.18
2023-01-13T06:32:37.458Z,6.20
2023-01-13T06:35:13.901Z,6.80
2023-01-13T06:37:50.924Z,6.57
2023-01-13T06:40:23.071Z,6.63
2023-01-13T06:42:57.125Z,6.25
2023-01-13T06:45:30.730Z,6.38
2023-01-13T06:48:02.280Z,6.30
2023-01-13T06:50:33.728Z,6.88
2023-01-13T06:53:05.191Z,6.38
2023-01-13T06:55:37.020Z,6.95
2023-01-13T06:58:08.477Z,6.43
2023-01-13T07:00:39.996Z,7.00
2023-01-13T07:03:14.345Z,7.43
2023-01-13T07:05:54.762Z,6.55
2023-01-13T07:08:26.224Z,5.63
2023-01-13T07:10:57.773Z,6.45
2023-01-13T07:13:29.222Z,5.97
2023-01-13T07:16:03.662Z,6.47
2023-01-13T07:18:36.025Z,6.97
2023-01-13T07:21:09.828Z,6.28
2023-01-13T07:23:41.834Z,6.70
2023-01-13T07:26:14.423Z,7.03
2023-01-13T07:28:45.840Z,6.85
2023-01-13T07:31:19.391Z,6.80
2023-01-13T07:33:50.982Z,6.80
2023-01-13T07:36:22.444Z,6.88
2023-01-13T07:38:54.901Z,6.80
2023-01-13T07:41:26.483Z,7.70
2023-01-13T07:43:57.907Z,7.13
2023-01-13T07:46:29.385Z,6.95
2023-01-13T07:49:00.857Z,6.35
2023-01-13T07:51:32.342Z,7.60
2023-01-13T07:54:03.895Z,6.13
2023-01-13T07:56:35.345Z,7.22
2023-01-13T07:59:06.774Z,7.38
2023-01-13T08:01:38.269Z,7.50
2023-01-13T08:04:09.803Z,7.25
2023-01-13T08:06:41.186Z,8.23
2023-01-13T08:09:12.775Z,8.07
2023-01-13T08:11:44.217Z,7.30
2023-01-13T08:14:15.657Z,7.50
2023-01-13T08:16:47.167Z,8.32
2023-01-13T08:19:18.655Z,8.00
2023-01-13T08:21:50.102Z,7.15
2023-01-13T08:24:21.582Z,7.25
2023-01-13T08:26:53.085Z,8.05
2023-01-13T08:29:24.491Z,7.78
2023-01-13T08:31:55.942Z,7.25
2023-01-13T08:34:27.389Z,8.93
2023-01-13T08:36:58.794Z,8.07
2023-01-13T08:39:30.341Z,7.43
2023-01-13T08:42:03.537Z,8.45
2023-01-13T08:44:34.990Z,8.60
2023-01-13T08:47:06.456Z,7.75
2023-01-13T08:49:37.881Z,7.80
2023-01-13T08:52:09.421Z,7.28
2023-01-13T08:54:40.915Z,8.00
2023-01-13T08:57:14.463Z,7.35
2023-01-13T08:59:46.816Z,7.28
2023-01-13T09:02:21.262Z,7.90
2023-01-13T09:04:53.410Z,7.10
2023-01-13T09:07:24.847Z,7.15
2023-01-13T09:09:56.289Z,7.13
2023-01-13T09:12:28.006Z,8.07
2023-01-13T09:14:59.766Z,7.88
2023-01-13T09:17:31.197Z,7.37
2023-01-13T09:20:02.754Z,7.55
2023-01-13T09:22:34.198Z,8.18
2023-01-13T09:25:06.157Z,8.38
2023-01-13T09:27:37.560Z,7.75
2023-01-13T09:30:09.740Z,7.03
2023-01-13T09:32:41.184Z,7.18
2023-01-13T09:35:12.627Z,7.38
2023-01-13T09:37:44.077Z,6.95
2023-01-13T09:40:20.199Z,7.03
2023-01-13T09:43:14.369Z,7.20
2023-01-13T09:45:57.615Z,7.00
2023-01-13T09:48:32.452Z,5.95
2023-01-13T09:51:14.955Z,6.38
2023-01-13T09:54:02.076Z,6.33
2023-01-13T09:56:33.524Z,6.32
2023-01-13T09:59:05.055Z,5.68
2023-01-13T10:02:03.210Z,6.07
2023-01-13T10:04:34.735Z,6.25
2023-01-13T10:07:14.148Z,6.57
2023-01-13T10:09:52.663Z,5.90
2023-01-13T10:12:26.447Z,6.57
2023-01-13T10:14:57.945Z,5.85
2023-01-13T10:18:06.542Z,6.07
2023-01-13T10:21:02.455Z,6.55
2023-01-13T10:24:00.282Z,6.80
2023-01-13T10:26:44.753Z,5.85
2023-01-13T10:29:21.653Z,6.78
2023-01-13T10:31:54.639Z,6.55
2023-01-13T10:34:27.462Z,5.65
2023-01-13T10:37:00.370Z,6.53
2023-01-13T10:39:54.655Z,5.13
2023-01-13T10:42:26.401Z,6.32
2023-01-13T10:44:59.730Z,6.00
2023-01-13T10:47:36.559Z,5.80
2023-01-13T10:50:13.896Z,5.95
2023-01-13T10:53:23.778Z,5.47
2023-01-13T10:56:03.612Z,6.18
2023-01-13T10:58:35.053Z,5.88
2023-01-13T11:01:06.980Z,5.80
2023-01-13T11:03:40.451Z,5.63
2023-01-13T11:06:29.877Z,5.22
2023-01-13T11:09:01.334Z,6.05
2023-01-13T11:11:41.920Z,6.43
2023-01-13T11:14:22.365Z,6.57
2023-01-13T11:16:58.347Z,6.43
2023-01-13T11:19:32.089Z,6.07
2023-01-13T11:22:19.434Z,6.30
2023-01-13T11:24:55.323Z,6.57
2023-01-13T11:27:48.513Z,6.45
2023-01-13T11:30:32.787Z,6.45
2023-01-13T11:33:10.020Z,6.53
2023-01-13T11:35:52.588Z,5.88
2023-01-13T11:38:40.668Z,5.95
2023-01-13T11:41:24.091Z,4.70
2023-01-13T11:43:59.676Z,5.22
2023-01-13T11:46:31.254Z,5.53
2023-01-13T11:49:03.973Z,5.28
2023-01-13T11:51:38.311Z,4.78
2023-01-13T11:54:24.931Z,5.30
2023-01-13T11:57:23.753Z,4.47
2023-01-13T11:59:57.889Z,5.50
2023-01-13T12:02:47.620Z,5.32
2023-01-13T12:05:35.978Z,5.13
2023-01-13T12:08:26.055Z,5.45
2023-01-13T12:11:09.636Z,5.22
2023-01-13T12:14:16.641Z,5.70
2023-01-13T12:16:49.527Z,5.32
2023-01-13T12:19:30.274Z,5.22
2023-01-13T12:22:16.456Z,5.38
2023-01-13T12:24:58.099Z,5.25
2023-01-13T12:27:35.509Z,5.72
2023-01-13T12:30:27.100Z,5.93
2023-01-13T12:33:12.812Z,5.35
2023-01-13T12:35:59.400Z,5.63
2023-01-13T12:38:45.395Z,5.57
2023-01-13T12:41:35.446Z,5.63
2023-01-13T12:44:08.370Z,5.68
2023-01-13T12:46:54.423Z,6.15
2023-01-13T12:49:34.115Z,5.43
2023-01-13T12:52:11.058Z,5.27
2023-01-13T12:54:42.481Z,4.90
2023-01-13T12:57:16.756Z,4.93
2023-01-13T13:00:03.230Z,5.10
2023-01-13T13:02:42.133Z,5.27
2023-01-13T13:05:25.622Z,5.43
2023-01-13T13:08:21.475Z,5.38
2023-01-13T13:11:01.936Z,5.85
2023-01-13T13:13:48.391Z,5.85
2023-01-13T13:16:25.964Z,5.93
2023-01-13T13:19:19.064Z,6.57
2023-01-13T13:22:12.454Z,5.93
2023-01-13T13:25:03.873Z,5.43
2023-01-13T13:27:38.081Z,5.35
2023-01-13T13:30:23.683Z,5.72
2023-01-13T13:33:31.133Z,5.72
2023-01-13T13:36:15.991Z,5.40
2023-01-13T13:39:11.581Z,5.03
2023-01-13T13:41:47.686Z,5.10
2023-01-13T13:44:28.972Z,5.73
2023-01-13T13:47:03.350Z,5.07
2023-01-13T13:49:43.789Z,4.53
2023-01-13T13:52:18.109Z,4.83
2023-01-13T13:54:52.569Z,5.60
2023-01-13T13:57:34.947Z,6.22
2023-01-13T14:00:19.500Z,6.05
2023-01-13T14:02:54.418Z,5.57
2023-01-13T14:05:34.055Z,5.50
2023-01-13T14:08:16.651Z,5.25
2023-01-13T14:10:48.123Z,4.88
2023-01-13T14:13:22.122Z,5.40
2023-01-13T14:16:02.160Z,5.28
2023-01-13T14:18:45.215Z,4.72
2023-01-13T14:21:26.554Z,5.38
2023-01-13T14:24:01.814Z,5.03
2023-01-13T14:26:33.240Z,5.43
2023-01-13T14:29:05.469Z,5.20
2023-01-13T14:31:38.399Z,5.22
2023-01-13T14:34:31.441Z,5.13
2023-01-13T14:37:03.853Z,5.25
2023-01-13T14:39:41.078Z,5.28
2023-01-13T14:42:15.672Z,5.20
2023-01-13T14:44:50.226Z,5.50
2023-01-13T14:47:32.360Z,5.37
2023-01-13T14:50:12.745Z,4.82
2023-01-13T14:52:49.701Z,5.18
2023-01-13T14:55:35.822Z,5.35
2023-01-13T14:58:20.441Z,5.43
2023-01-13T15:01:12.984Z,4.88
2023-01-13T15:03:44.418Z,4.70
2023-01-13T15:06:24.554Z,5.70
2023-01-13T15:08:56.078Z,5.53
2023-01-13T15:11:28.905Z,5.50
2023-01-13T15:14:01.523Z,5.40
2023-01-13T15:16:34.929Z,5.57
2023-01-13T15:19:09.059Z,4.93
2023-01-13T15:21:40.518Z,5.28
2023-01-13T15:24:11.971Z,5.50
2023-01-13T15:26:43.563Z,5.22
2023-01-13T15:29:24.299Z,5.18
2023-01-13T15:31:55.877Z,5.32
2023-01-13T15:34:27.362Z,5.30
2023-01-13T15:36:58.763Z,4.68
2023-01-13T15:39:30.199Z,5.90
2023-01-13T15:42:01.641Z,5.45
2023-01-13T15:44:33.079Z,5.47
2023-01-13T15:47:09.925Z,4.75
2023-01-13T15:49:44.633Z,5.67
2023-01-13T15:52:24.985Z,5.25
2023-01-13T15:54:56.427Z,5.50
2023-01-13T15:57:30.833Z,5.38
2023-01-13T16:00:12.924Z,5.38
2023-01-13T16:02:44.467Z,5.40
2023-01-13T16:05:16.130Z,4.63
2023-01-13T16:07:47.606Z,5.38
2023-01-13T16:10:23.389Z,5.72
2023-01-13T16:12:55.388Z,5.47
2023-01-13T16:15:26.823Z,4.65
2023-01-13T16:18:01.171Z,5.35
2023-01-13T16:20:32.584Z,5.38
2023-01-13T16:23:04.006Z,5.75
2023-01-13T16:25:35.436Z,5.95
2023-01-13T16:28:07.070Z,5.80
2023-01-13T16:30:38.531Z,5.18
2023-01-13T16:33:09.989Z,5.43
2023-01-13T16:35:43.994Z,4.70
2023-01-13T16:38:33.470Z,5.00
2023-01-13T16:41:05.066Z,5.18
2023-01-13T16:43:36.510Z,5.90
2023-01-13T16:46:19.173Z,5.20
2023-01-13T16:48:52.885Z,5.03
2023-01-13T16:51:24.625Z,5.00
2023-01-13T16:53:56.209Z,4.90
2023-01-13T16:56:30.421Z,4.63
2023-01-13T16:59:10.633Z,3.13
2023-01-13T17:01:43.433Z,2.75
2023-01-13T17:04:18.388Z,3.55
2023-01-13T17:07:06.035Z,3.90
2023-01-13T17:09:37.475Z,3.53
2023-01-13T17:12:10.323Z,3.53
2023-01-13T17:14:41.782Z,4.18
2023-01-13T17:17:25.272Z,4.38
2023-01-13T17:19:56.672Z,4.30
2023-01-13T17:22:28.133Z,4.45
2023-01-13T17:24:59.622Z,5.13
2023-01-13T17:27:31.552Z,4.22
2023-01-13T17:30:03.308Z,3.60
2023-01-13T17:32:34.723Z,3.93
2023-01-13T17:35:06.833Z,4.00
2023-01-13T17:37:38.299Z,3.40
2023-01-13T17:40:10.502Z,3.53
2023-01-13T17:42:41.946Z,3.60
2023-01-13T17:45:13.360Z,3.20
2023-01-13T17:47:47.232Z,3.58
2023-01-13T17:50:18.961Z,3.53
2023-01-13T17:52:50.475Z,3.88
2023-01-13T17:55:21.939Z,4.55
2023-01-13T17:57:53.367Z,4.28
2023-01-13T18:00:24.908Z,4.85
2023-01-13T18:02:56.387Z,5.35
2023-01-13T18:05:27.973Z,4.25
2023-01-13T18:07:59.611Z,3.60
2023-01-13T18:10:32.435Z,4.18
2023-01-13T18:13:04.015Z,4.40
2023-01-13T18:15:35.953Z,5.45
2023-01-13T18:18:07.407Z,4.85
2023-01-13T18:20:38.830Z,4.95
2023-01-13T18:23:16.992Z,5.50
2023-01-13T18:25:48.431Z,5.28
2023-01-13T18:28:19.871Z,4.88
2023-01-13T18:30:51.345Z,4.63
2023-01-13T18:33:23.358Z,4.13
2023-01-13T18:35:54.794Z,4.45
2023-01-13T18:38:26.293Z,4.78
2023-01-13T18:40:57.716Z,4.50
2023-01-13T18:43:32.919Z,4.75
2023-01-13T18:46:04.408Z,3.80
2023-01-13T18:48:35.856Z,4.57
2023-01-13T18:51:07.304Z,4.45
2023-01-13T18:53:38.772Z,4.17
2023-01-13T18:56:11.450Z,3.42
2023-01-13T18:58:43.833Z,5.35
2023-01-13T19:01:15.323Z,4.60
2023-01-13T19:03:46.844Z,4.53
2023-01-13T19:06:18.271Z,4.43
2023-01-13T19:08:50.118Z,4.60
2023-01-13T19:11:22.944Z,4.63
2023-01-13T19:13:54.341Z,5.00
2023-01-13T19:16:25.856Z,4.95
2023-01-13T19:18:57.294Z,3.80
2023-01-13T19:21:28.716Z,4.68
2023-01-13T19:24:00.178Z,4.15
2023-01-13T19:26:31.623Z,4.18
2023-01-13T19:29:03.014Z,4.10
2023-01-13T19:31:34.469Z,4.25
2023-01-13T19:34:06.054Z,4.32
2023-01-13T19:36:37.469Z,4.47
2023-01-13T19:39:08.938Z,4.00
2023-01-13T19:41:40.453Z,4.05
2023-01-13T19:44:13.316Z,4.00
2023-01-13T19:46:46.176Z,4.60
2023-01-13T19:49:17.618Z,4.75
2023-01-13T19:51:49.290Z,3.75
2023-01-13T19:54:20.739Z,4.00
2023-01-13T19:56:52.306Z,3.95
2023-01-13T19:59:23.778Z,4.40
2023-01-13T20:02:00.083Z,4.97
2023-01-13T20:04:31.573Z,4.63
2023-01-13T20:07:06.895Z,4.70
2023-01-13T20:09:38.482Z,4.45
2023-01-13T20:12:10.868Z,4.57
2023-01-13T20:14:42.710Z,4.88
2023-01-13T20:17:15.830Z,5.20
2023-01-13T20:19:47.725Z,4.53
2023-01-13T20:22:19.202Z,4.28
2023-01-13T20:24:50.782Z,4.55
2023-01-13T20:27:22.907Z,4.32
2023-01-13T20:29:54.316Z,4.20
2023-01-13T20:32:25.850Z,4.60
2023-01-13T20:34:57.298Z,4.47
2023-01-13T20:37:28.698Z,5.03
2023-01-13T20:40:00.152Z,4.47
2023-01-13T20:42:32.108Z,4.80
2023-01-13T20:45:03.775Z,4.45
2023-01-13T20:47:35.223Z,4.45
2023-01-13T20:50:07.384Z,5.18
2023-01-13T20:52:38.848Z,4.95
2023-01-13T20:55:10.928Z,5.20
2023-01-13T20:57:42.363Z,4.90
2023-01-13T21:00:14.104Z,4.60
2023-01-13T21:02:45.557Z,4.75
2023-01-13T21:05:17.050Z,4.85
2023-01-13T21:07:48.420Z,4.22
2023-01-13T21:10:19.866Z,4.40
2023-01-13T21:12:51.334Z,4.50
2023-01-13T21:15:22.899Z,4.90
2023-01-13T21:17:54.391Z,4.28
2023-01-13T21:20:25.853Z,4.60
2023-01-13T21:22:57.298Z,4.72
2023-01-13T21:25:29.608Z,4.05
2023-01-13T21:28:01.089Z,4.90
2023-01-13T21:30:32.832Z,5.00
2023-01-13T21:33:04.424Z,4.07
2023-01-13T21:35:38.628Z,4.38
2023-01-13T21:38:11.106Z,4.80
2023-01-13T21:40:42.568Z,4.72
2023-01-13T21:43:14.046Z,5.15
2023-01-13T21:45:45.473Z,5.13
2023-01-13T21:48:16.900Z,4.20
2023-01-13T21:50:48.312Z,5.47
2023-01-13T21:53:19.773Z,5.00
2023-01-13T21:55:51.420Z,5.07
2023-01-13T21:58:22.946Z,5.03
2023-01-13T22:00:54.454Z,5.07
2023-01-13T22:03:25.971Z,4.50
2023-01-13T22:05:57.388Z,4.53
2023-01-13T22:08:28.774Z,5.00
2023-01-13T22:11:02.579Z,4.70
2023-01-13T22:13:33.974Z,4.53
2023-01-13T22:16:05.864Z,4.40
2023-01-13T22:18:37.273Z,5.00
2023-01-13T22:21:08.747Z,4.50
2023-01-13T22:23:40.316Z,4.47
2023-01-13T22:26:12.051Z,4.68
2023-01-13T22:28:43.614Z,4.78
2023-01-13T22:31:18.115Z,4.65
2023-01-13T22:33:53.870Z,4.80
2023-01-13T22:36:25.326Z,4.37
2023-01-13T22:38:56.817Z,4.88
2023-01-13T22:41:28.277Z,5.07
2023-01-13T22:43:59.700Z,4.38
2023-01-13T22:46:31.073Z,4.55
2023-01-13T22:49:02.560Z,5.10
2023-01-13T22:51:34.022Z,4.47
2023-01-13T22:54:05.645Z,4.55
2023-01-13T22:56:37.357Z,4.20
2023-01-13T22:59:11.871Z,4.97
2023-01-13T23:01:43.637Z,4.47
2023-01-13T23:04:15.212Z,4.90
2023-01-13T23:06:46.681Z,4.80
2023-01-13T23:09:18.106Z,4.40
2023-01-13T23:11:49.602Z,4.70
2023-01-13T23:14:21.051Z,4.88
2023-01-13T23:16:52.638Z,4.30
2023-01-13T23:19:24.154Z,4.22
2023-01-13T23:21:55.570Z,4.68
2023-01-13T23:24:27.007Z,4.55
2023-01-13T23:26:58.489Z,4.72
2023-01-13T23:29:30.033Z,4.40
2023-01-13T23:32:01.441Z,4.53
2023-01-13T23:34:32.882Z,3.83
2023-01-13T23:37:04.302Z,3.95
2023-01-13T23:39:35.747Z,4.40
2023-01-13T23:42:07.200Z,4.57
2023-01-13T23:44:38.624Z,4.85
2023-01-13T23:47:10.268Z,5.53
2023-01-13T23:49:41.682Z,4.57
2023-01-13T23:52:13.144Z,4.88
2023-01-13T23:54:44.611Z,5.57
2023-01-13T23:57:16.104Z,4.40
2023-01-13T23:59:47.564Z,4.72
